EW4784 Weather Reports


Display with metric or nautical units.
time (UTC)temp
F
wind
direction
speed
MPH
gust
MPH
rain 1hr
in
rain 24hr
in
rain mn
in
humidity
%
barometer
mb
20200406020021 44 146 7.0 13.0 0.00 0.03 0.03 69 1021.4
20200406015556 44 109 3.0 5.0 0.00 0.03 0.06 66 1021.4
20200406015019 45 111 3.0 6.0 0.00 0.03 0.03 66 1021.4
20200406014518 45 121 2.0 4.0 0.00 0.03 0.03 65 1021.3
20200406013517 46 152 6.0 8.0 0.01 0.03 0.03 65 1021.2
20200406013016 46 146 5.0 8.0 0.01 0.03 0.03 65 1021.1
20200406012514 46 149 5.0 8.0 0.01 0.03 0.03 64 1021.0
20200406012013 46 145 5.0 9.0 0.01 0.03 0.03 64 1021.0
20200406011548 45 135 3.0 6.0 0.01 0.03 0.06 64 1020.9
20200406011011 45 145 2.0 4.0 0.01 0.03 0.03 64 1020.8
20200406010546 45 143 1.0 4.0 0.01 0.03 0.06 64 1020.7
20200406005619 46 118 0.0 0.0 0.01 0.03 0.03 60 1020.7
20200406005043 47 124 1.0 3.0 0.01 0.03 0.06 56 1020.6
20200406004506 47 45 0.0 0.0 0.01 0.03 0.03 55 1020.5
20200406004005 47 45 0.0 0.0 0.00 0.02 0.02 56 1020.5
20200406003504 48 52 0.0 1.0 0.00 0.02 0.02 56 1020.4
20200406003004 48 57 1.0 4.0 0.00 0.02 0.04 52 1020.3
20200406002538 49 62 0.0 0.0 0.00 0.02 0.04 51 1020.2
20200406002113 49 62 0.0 0.0 0.00 0.02 0.02 49 1020.1
20200406001500 50 59 0.0 0.0 0.00 0.02 0.04 46 1020.1
20200406000959 50 37 0.0 0.0 0.00 0.02 0.04 45 1020.0
20200406000458 50 31 0.0 4.0 0.00 0.02 0.04 44 1020.0
20200406000033 50 92 0.0 2.0 0.00 0.02 0.02 45 1019.9
20200405235456 51 80 0.0 2.0 0.00 0.02 0.04 45 1019.9
20200405234956 51 31 1.0 5.0 0.00 0.02 0.04 45 1019.9
20200405234540 51 20 2.0 5.0 0.00 0.02 0.02 45 1019.9
20200405234029 52 5 5.0 8.0 0.00 0.02 0.02 45 1019.9
20200405233453 52 335 5.0 10.0 0.00 0.03 0.04 42 1019.9
20200405233027 52 308 4.0 8.0 0.00 0.03 0.02 41 1019.9
20200405232526 52 106 1.0 5.0 0.00 0.03 0.02 41 1019.9
20200405231949 52 17 3.0 8.0 0.00 0.03 0.04 41 1019.8
20200405231524 53 40 3.0 7.0 0.00 0.03 0.02 41 1019.8
20200405231058 53 72 5.0 11.0 0.01 0.03 0.04 40 1019.8
20200405230557 53 64 2.0 8.0 0.01 0.03 0.04 41 1019.8
20200405230021 54 90 3.0 7.0 0.01 0.03 0.02 39 1019.7
20200405225520 54 48 6.0 12.0 0.01 0.03 0.02 39 1019.7
20200405225054 54 116 5.0 12.0 0.01 0.03 0.04 39 1019.6
20200405224553 55 87 4.0 11.0 0.01 0.03 0.04 39 1019.6
20200405223941 56 6 9.0 18.0 0.01 0.03 0.04 37 1019.4
20200405223441 56 352 7.0 11.0 0.01 0.03 0.04 34 1019.4
20200405223019 56 4 6.0 12.0 0.01 0.03 0.02 35 1019.4
20200405222439 56 27 6.0 11.0 0.01 0.03 0.04 33 1019.4
20200405222048 57 9 10.0 17.0 0.01 0.03 0.04 33 1019.3
20200405063239 41 9 7.0 12.0 0.00 0.01 0.00 100 1018.4
20200405062703 41 14 9.0 20.0 0.00 0.01 0.00 100 1018.3
20200405062202 41 14 11.0 22.0 0.00 0.01 0.00 100 1018.3
20200405061625 41 13 7.0 12.0 0.00 0.01 0.00 100 1018.3
20200405061200 41 7 10.0 19.0 0.00 0.01 0.00 100 1018.3
20200405060734 41 8 9.0 22.0 0.00 0.01 0.00 100 1018.3
20200405060123 42 9 10.0 22.0 0.00 0.01 0.00 100 1018.3
20200405055757 42 9 6.0 10.0 0.00 0.01 0.00 100 1018.3
20200405054619 42 9 9.0 16.0 0.00 0.01 0.00 100 1018.2
20200405054119 42 12 11.0 23.0 0.00 0.01 0.00 100 1018.2
20200405053617 42 9 8.0 13.0 0.00 0.01 0.00 100 1018.2
20200405052616 43 7 11.0 18.0 0.00 0.01 0.00 100 1018.1
20200405052115 43 4 12.0 17.0 0.00 0.01 0.00 100 1018.1
20200405051614 43 359 10.0 17.0 0.00 0.01 0.00 100 1018.0
20200405051113 43 357 11.0 17.0 0.00 0.01 0.00 100 1018.0
20200405050612 43 3 12.0 21.0 0.00 0.01 0.00 100 1018.0
20200405050111 43 3 13.0 25.0 0.00 0.01 0.00 100 1018.0
20200405045645 43 0 15.0 25.0 0.00 0.01 0.00 100 1018.0
20200405045109 44 2 12.0 20.0 0.00 0.01 0.00 100 1018.0
20200405044718 44 0 12.0 20.0 0.00 0.01 0.00 100 1018.0
20200405044107 44 4 13.0 25.0 0.00 0.01 0.00 100 1018.0
20200405043605 44 4 8.0 16.0 0.00 0.01 0.00 100 1018.0
20200405043105 44 6 11.0 18.0 0.00 0.01 0.00 99 1018.0
20200405042603 44 352 10.0 19.0 0.00 0.01 0.00 99 1018.0
20200405042136 44 349 9.0 16.0 0.00 0.01 0.00 99 1018.0
20200405041712 44 5 9.0 16.0 0.00 0.01 0.00 99 1018.0
20200405041136 44 0 8.0 13.0 0.00 0.01 0.00 99 1018.0
20200405040600 44 4 10.0 15.0 0.00 0.01 0.00 99 1018.0
20200405040058 44 8 11.0 22.0 0.00 0.01 0.00 99 1018.0
20200405035708 44 12 10.0 22.0 0.00 0.01 0.01 98 1018.0
20200405035133 44 2 8.0 16.0 0.00 0.01 0.02 98 1018.0
20200405034708 44 7 9.0 17.0 0.00 0.01 0.01 98 1017.9
20200405034054 44 4 11.0 21.0 0.00 0.01 0.01 98 1017.9
20200405033629 44 350 10.0 20.0 0.00 0.01 0.01 98 1017.8
20200405032051 44 353 7.0 12.0 0.00 0.01 0.02 99 1017.7
20200405031549 44 12 8.0 16.0 0.00 0.01 0.02 99 1017.6
20200405031048 44 9 10.0 16.0 0.00 0.01 0.02 99 1017.6
20200405030047 44 0 9.0 21.0 0.00 0.01 0.02 100 1017.6
20200405025621 44 4 8.0 17.0 0.00 0.01 0.01 100 1017.6
20200405025044 44 357 7.0 10.0 0.00 0.01 0.02 100 1017.5
20200405024543 44 1 7.0 17.0 0.00 0.01 0.02 100 1017.5
20200405024117 44 4 11.0 20.0 0.00 0.01 0.01 100 1017.5
20200405023542 44 0 13.0 20.0 0.00 0.01 0.02 100 1017.5
20200405023040 44 359 11.0 18.0 0.00 0.01 0.02 100 1017.5
20200405022650 44 3 12.0 18.0 0.00 0.01 0.02 100 1017.5
20200405021537 44 358 10.0 14.0 0.00 0.01 0.02 100 1017.4
20200405021112 44 358 8.0 13.0 0.00 0.01 0.01 100 1017.3
20200405020535 44 7 9.0 16.0 0.00 0.01 0.02 100 1017.3